CYYZ

Lester B Pearson International Airport

Toronto, , Canada
METAR CYYZ 191500Z 23012KT 12SM R06R/4500VP6000FT/N BKN180 BKN240 M03/M08 A2990 RMK AC5CI1 SLP136
Observed Flight Rules
Jan-19 @ 15:00 UTC (22 minutes ago) Visual Flight Rules
Wind Visibility Clouds
230° at 12 knots 12 miles
  • Broken at 18,000' AGL
  • Broken at 24,000' AGL
Temperatures Readings
Current -3°C / 27°F
Dewpoint -8°C / 18°F
Humidity 69%
Altimeter 29.9" Hg
Pressure 1013.6 hPa
Elevation 173
METAR CYYZ 191500Z 23012KT 12SM R06R/4500VP6000FT/N BKN180 BKN240 M03/M08 A2990 RMK AC5CI1 SLP136
Observed Flight Rules
Jan-19 @ 15:00 UTC
(22 minutes ago)
VFR
Wind Visibility
230° at 12 knots 12 miles
Clouds
  • Broken at 18,000' AGL
  • Broken at 24,000' AGL
Temperature Dewpoint
-3°C / 27°F -8°C / 18°F
Humidity Altimeter Pressure
69% 29.9" Hg 1013.6 hPa